| time (UTC) | temp F | wind direction | speed knots | gust knots | rain 1hr in | rain 24hr in | rain mn in | humidity % | barometer mb |
| 20260509023034 | 55 | 206 | 0.0 | 0.9 | 0.12 | 0.32 | 0.32 | 94 | 1011.3 |
| 20260509020029 | 54 | 211 | 0.0 | 0.0 | 0.12 | 0.26 | 0.26 | 95 | 1011.7 |
| 20260509013028 | 54 | 246 | 3.5 | 4.3 | 0.14 | 0.20 | 0.20 | 93 | 1011.2 |
| 20260509010028 | 54 | 226 | 2.6 | 2.6 | 0.12 | 0.14 | 0.14 | 92 | 1011.0 |
| 20260509003027 | 54 | 221 | 0.9 | 1.7 | 0.07 | 0.11 | 0.11 | 91 | 1010.6 |
| 20260509000026 | 55 | 275 | 3.5 | 4.3 | 0.07 | 0.07 | 0.07 | 89 | 1011.0 |
| 20260508233023 | 55 | 263 | 4.3 | 6.1 | 0.12 | 0.05 | 0.05 | 85 | 1011.0 |
| 20260508230022 | 56 | 312 | 4.3 | 6.1 | 0.05 | 0.01 | 0.01 | 83 | 1011.1 |
| 20260508223017 | 58 | 274 | 10.4 | 13.0 | 0.00 | 0.00 | 0.00 | 70 | 1011.0 |
| 20260508220014 | 62 | 243 | 7.0 | 8.7 | 0.00 | 0.00 | 0.00 | 58 | 1010.3 |
| 20260508213012 | 63 | 188 | 0.0 | 0.0 | 0.00 | 0.00 | 0.00 | 58 | 1010.2 |
| 20260508210010 | 63 | 226 | 0.0 | 0.0 | 0.00 | 0.00 | 0.00 | 58 | 1010.5 |
| 20260508203005 | 63 | 212 | 0.0 | 0.0 | 0.00 | 0.00 | 0.00 | 52 | 1010.7 |
| 20260508200002 | 62 | 229 | 2.6 | 4.3 | 0.00 | 0.00 | 0.00 | 52 | 1011.5 |
| 20260508193001 | 63 | 213 | 4.3 | 6.1 | 0.00 | 0.00 | 0.00 | 51 | 1011.5 |
| 20260508185959 | 63 | 214 | 1.7 | 2.6 | 0.00 | 0.00 | 0.00 | 49 | 1012.3 |
| 20260508182956 | 63 | 197 | 0.9 | 0.9 | 0.00 | 0.00 | 0.00 | 50 | 1012.1 |
| 20260508175953 | 66 | 235 | 5.2 | 7.0 | 0.00 | 0.00 | 0.00 | 46 | 1012.4 |
| 20260508172952 | 64 | 204 | 2.6 | 2.6 | 0.00 | 0.00 | 0.00 | 49 | 1012.8 |
| 20260508165950 | 62 | 196 | 2.6 | 4.3 | 0.00 | 0.00 | 0.00 | 54 | 1013.4 |
| 20260508162949 | 62 | 236 | 4.3 | 5.2 | 0.00 | 0.00 | 0.00 | 52 | 1013.8 |
| 20260508155949 | 62 | 201 | 7.8 | 8.7 | 0.00 | 0.00 | 0.00 | 57 | 1014.1 |
| 20260508152948 | 63 | 201 | 3.5 | 5.2 | 0.00 | 0.00 | 0.00 | 50 | 1014.1 |
| 20260508145944 | 61 | 229 | 2.6 | 5.2 | 0.00 | 0.00 | 0.00 | 57 | 1014.2 |
| 20260508142944 | 59 | 265 | 13.9 | 17.4 | 0.00 | 0.00 | 0.00 | 54 | 1014.5 |
| 20260508135942 | 57 | 210 | 3.5 | 5.2 | 0.00 | 0.00 | 0.00 | 56 | 1014.8 |
| 20260508132941 | 55 | 200 | 2.6 | 2.6 | 0.00 | 0.00 | 0.00 | 57 | 1015.0 |
| 20260508125938 | 53 | 206 | 5.2 | 6.1 | 0.00 | 0.00 | 0.00 | 63 | 1014.8 |
| 20260508122934 | 51 | 270 | 5.2 | 6.1 | 0.00 | 0.00 | 0.00 | 65 | 1015.0 |
| 20260508115930 | 49 | 226 | 0.9 | 0.9 | 0.00 | 0.00 | 0.00 | 68 | 1014.8 |
| 20260508112925 | 47 | 190 | 0.9 | 1.7 | 0.00 | 0.00 | 0.00 | 69 | 1014.4 |
| 20260508105921 | 47 | 198 | 0.0 | 0.0 | 0.00 | 0.00 | 0.00 | 70 | 1014.2 |
| 20260508102921 | 47 | 189 | 0.9 | 0.9 | 0.00 | 0.00 | 0.00 | 71 | 1014.2 |
| 20260508095916 | 46 | 210 | 0.0 | 0.0 | 0.00 | 0.00 | 0.00 | 72 | 1014.3 |
| 20260508092916 | 48 | 215 | 0.0 | 0.0 | 0.00 | 0.00 | 0.00 | 71 | 1014.3 |
| 20260508085911 | 48 | 225 | 0.0 | 0.0 | 0.00 | 0.00 | 0.00 | 70 | 1014.6 |
| 20260508082908 | 48 | 225 | 2.6 | 2.6 | 0.00 | 0.00 | 0.00 | 68 | 1014.6 |
| 20260508075908 | 49 | 207 | 0.9 | 0.9 | 0.00 | 0.00 | 0.00 | 60 | 1014.5 |
| 20260508072904 | 49 | 210 | 0.0 | 0.9 | 0.00 | 0.00 | 0.00 | 61 | 1014.5 |
| 20260508065900 | 49 | 215 | 3.5 | 6.1 | 0.00 | 0.00 | 0.00 | 66 | 1014.7 |
| 20260508062857 | 49 | 211 | 0.0 | 0.9 | 0.00 | 0.00 | 0.00 | 61 | 1015.0 |
| 20260508055855 | 49 | 227 | 0.9 | 0.9 | 0.00 | 0.00 | 0.00 | 64 | 1015.2 |
| 20260508052855 | 49 | 213 | 1.7 | 4.3 | 0.00 | 0.00 | 0.00 | 65 | 1015.1 |
| 20260508045851 | 49 | 221 | 0.0 | 1.7 | 0.00 | 0.00 | 0.00 | 64 | 1014.8 |
| 20260508042850 | 49 | 201 | 0.9 | 1.7 | 0.00 | 0.00 | 0.00 | 64 | 1014.8 |
| 20260508035850 | 48 | 191 | 0.0 | 0.0 | 0.00 | 0.00 | 0.00 | 67 | 1014.7 |
| 20260508032845 | 49 | 187 | 2.6 | 2.6 | 0.00 | 0.00 | 0.00 | 71 | 1015.0 |
| 20260508025844 | 49 | 175 | 2.6 | 2.6 | 0.00 | 0.00 | 0.00 | 72 | 1015.1 |